This is the latest recevied weather packets stored in our database for station/object W7BL. If no packets are shown the sender has not sent any weather packets the latest 10 day(s).
| Time | Temp. | Humidity | Pressure | Rain* | Wind** | Luminosity | Snow |
|---|---|---|---|---|---|---|---|
| 1777730110 | 9.44° C | 68% | - | 0 mm | - | - | - |
| 1777729807 | 8.89° C | 71% | - | 0 mm | - | - | - |
| 1777729504 | 8.33° C | 72% | - | 0 mm | - | - | - |
| 1777729201 | 7.78° C | 74% | - | 0 mm | - | - | - |
| 1777728897 | 7.78° C | 73% | - | 0 mm | - | - | - |
| 1777728594 | 7.22° C | 73% | - | 0 mm | - | - | - |
| 1777728292 | 7.22° C | 74% | - | 0 mm | - | - | - |
| 1777727989 | 6.67° C | 76% | - | 0 mm | - | - | - |
| 1777727685 | 6.67° C | 76% | - | 0 mm | - | - | - |
| 1777727382 | 7.22° C | 74% | - | 0 mm | - | - | - |
| 1777727080 | 7.22° C | 73% | - | 0 mm | - | - | - |
| 1777726778 | 6.67° C | 75% | - | 0 mm | - | - | - |
| 1777726474 | 6.67° C | 75% | - | 0 mm | - | - | - |
| 1777726171 | 6.11° C | 78% | - | 0 mm | - | - | - |
| 1777725867 | 5.56° C | 80% | - | 0 mm | - | - | - |
| 1777725566 | 5.56° C | 79% | - | 0 mm | - | - | - |
| 1777725262 | 5.56° C | 79% | - | 0 mm | - | - | - |
| 1777724960 | 6.11° C | 79% | - | 0 mm | - | - | - |
| 1777724656 | 5.56° C | 79% | - | 0 mm | - | - | - |
| 1777724354 | 6.11° C | 78% | - | 0 mm | - | - | - |
| 1777724051 | 6.11° C | 78% | - | 0 mm | - | - | - |
| 1777723748 | 6.11° C | 78% | - | 0 mm | - | - | - |
| 1777723444 | 6.11° C | 77% | - | 0 mm | - | - | - |
| 1777723141 | 6.11° C | 77% | - | 0 mm | - | - | - |
| 1777722839 | 6.67° C | 76% | - | 0 mm | - | - | - |
* Rain latest hour (hover to see other rain measurements)
** Current wind speed in m/s (hover to see current wind gust speed)